sensor_id;sensor_type;location;lat;lon;timestamp;temperature;humidity
19000;DHT22;9633;50.980;13.850;2023-04-03T00:01:28;3.30;10.70
19000;DHT22;9633;50.980;13.850;2023-04-03T00:03:01;3.30;12.30
19000;DHT22;9633;50.980;13.850;2023-04-03T00:04:35;3.30;19.00
19000;DHT22;9633;50.980;13.850;2023-04-03T00:06:10;3.30;24.20
19000;DHT22;9633;50.980;13.850;2023-04-03T00:07:43;3.30;19.70
19000;DHT22;9633;50.980;13.850;2023-04-03T00:09:16;3.30;25.70
19000;DHT22;9633;50.980;13.850;2023-04-03T00:10:49;3.20;34.10
19000;DHT22;9633;50.980;13.850;2023-04-03T00:12:23;3.10;34.00
19000;DHT22;9633;50.980;13.850;2023-04-03T00:13:56;3.20;7.70
19000;DHT22;9633;50.980;13.850;2023-04-03T00:15:29;3.20;17.00
19000;DHT22;9633;50.980;13.850;2023-04-03T00:17:01;3.20;5.70
19000;DHT22;9633;50.980;13.850;2023-04-03T00:18:35;3.20;8.00
19000;DHT22;9633;50.980;13.850;2023-04-03T00:20:08;3.10;18.70
19000;DHT22;9633;50.980;13.850;2023-04-03T00:21:43;3.10;25.00
19000;DHT22;9633;50.980;13.850;2023-04-03T00:23:16;3.00;23.30
19000;DHT22;9633;50.980;13.850;2023-04-03T00:24:49;3.10;4.90
19000;DHT22;9633;50.980;13.850;2023-04-03T00:26:22;3.10;9.10
19000;DHT22;9633;50.980;13.850;2023-04-03T00:27:56;3.20;10.60
19000;DHT22;9633;50.980;13.850;2023-04-03T00:29:29;3.20;16.90
19000;DHT22;9633;50.980;13.850;2023-04-03T00:31:02;3.20;8.30
19000;DHT22;9633;50.980;13.850;2023-04-03T00:32:35;3.20;17.20
19000;DHT22;9633;50.980;13.850;2023-04-03T00:34:08;3.20;6.50
19000;DHT22;9633;50.980;13.850;2023-04-03T00:35:42;3.20;11.10
19000;DHT22;9633;50.980;13.850;2023-04-03T00:37:16;3.10;16.70
19000;DHT22;9633;50.980;13.850;2023-04-03T00:38:49;3.10;10.90
19000;DHT22;9633;50.980;13.850;2023-04-03T00:40:24;3.10;12.60
19000;DHT22;9633;50.980;13.850;2023-04-03T00:41:57;3.10;11.60
19000;DHT22;9633;50.980;13.850;2023-04-03T00:43:30;3.10;9.30
19000;DHT22;9633;50.980;13.850;2023-04-03T00:45:32;3.10;16.50
19000;DHT22;9633;50.980;13.850;2023-04-03T00:47:08;3.10;15.80
19000;DHT22;9633;50.980;13.850;2023-04-03T00:48:43;3.10;15.20
19000;DHT22;9633;50.980;13.850;2023-04-03T00:50:17;3.10;18.10
19000;DHT22;9633;50.980;13.850;2023-04-03T00:51:50;3.00;9.60
19000;DHT22;9633;50.980;13.850;2023-04-03T00:53:27;3.00;12.20
19000;DHT22;9633;50.980;13.850;2023-04-03T00:55:05;3.10;9.10
19000;DHT22;9633;50.980;13.850;2023-04-03T00:56:39;3.10;11.40
19000;DHT22;9633;50.980;13.850;2023-04-03T00:58:13;3.00;15.80
19000;DHT22;9633;50.980;13.850;2023-04-03T00:59:52;3.00;17.00
19000;DHT22;9633;50.980;13.850;2023-04-03T01:01:28;3.00;10.60
19000;DHT22;9633;50.980;13.850;2023-04-03T01:03:02;2.90;18.60
19000;DHT22;9633;50.980;13.850;2023-04-03T01:04:38;2.90;26.50
19000;DHT22;9633;50.980;13.850;2023-04-03T01:06:13;2.90;23.20
19000;DHT22;9633;50.980;13.850;2023-04-03T01:07:51;2.90;19.50
19000;DHT22;9633;50.980;13.850;2023-04-03T01:09:26;2.90;25.10
19000;DHT22;9633;50.980;13.850;2023-04-03T01:10:59;2.90;26.70
19000;DHT22;9633;50.980;13.850;2023-04-03T01:12:34;2.80;19.30
19000;DHT22;9633;50.980;13.850;2023-04-03T01:14:07;2.80;16.10
19000;DHT22;9633;50.980;13.850;2023-04-03T01:15:40;2.70;21.00
19000;DHT22;9633;50.980;13.850;2023-04-03T01:17:31;2.70;24.50
19000;DHT22;9633;50.980;13.850;2023-04-03T01:19:06;2.70;22.90
19000;DHT22;9633;50.980;13.850;2023-04-03T01:22:40;2.70;8.50
19000;DHT22;9633;50.980;13.850;2023-04-03T01:24:35;2.70;19.80
19000;DHT22;9633;50.980;13.850;2023-04-03T01:26:13;2.70;16.60
19000;DHT22;9633;50.980;13.850;2023-04-03T01:27:46;2.60;26.10
19000;DHT22;9633;50.980;13.850;2023-04-03T01:29:20;2.60;21.40
19000;DHT22;9633;50.980;13.850;2023-04-03T01:30:58;2.60;26.70
19000;DHT22;9633;50.980;13.850;2023-04-03T01:32:36;2.60;22.80
19000;DHT22;9633;50.980;13.850;2023-04-03T01:34:09;2.50;26.30
19000;DHT22;9633;50.980;13.850;2023-04-03T01:35:43;2.50;24.30
19000;DHT22;9633;50.980;13.850;2023-04-03T01:37:16;2.50;21.80
19000;DHT22;9633;50.980;13.850;2023-04-03T01:38:49;2.50;22.90
19000;DHT22;9633;50.980;13.850;2023-04-03T01:40:22;2.50;18.60
19000;DHT22;9633;50.980;13.850;2023-04-03T01:41:55;2.40;25.70
19000;DHT22;9633;50.980;13.850;2023-04-03T01:43:34;2.40;24.40
19000;DHT22;9633;50.980;13.850;2023-04-03T01:45:08;2.40;26.40
19000;DHT22;9633;50.980;13.850;2023-04-03T01:46:41;2.40;26.20
19000;DHT22;9633;50.980;13.850;2023-04-03T01:48:16;2.30;33.40
19000;DHT22;9633;50.980;13.850;2023-04-03T01:49:49;2.30;33.10
19000;DHT22;9633;50.980;13.850;2023-04-03T01:51:23;2.30;16.00
19000;DHT22;9633;50.980;13.850;2023-04-03T01:52:56;2.30;19.80
19000;DHT22;9633;50.980;13.850;2023-04-03T01:54:29;2.20;26.80
19000;DHT22;9633;50.980;13.850;2023-04-03T01:56:02;2.10;32.30
19000;DHT22;9633;50.980;13.850;2023-04-03T01:57:36;2.10;30.30
19000;DHT22;9633;50.980;13.850;2023-04-03T01:59:09;2.10;28.60
19000;DHT22;9633;50.980;13.850;2023-04-03T02:00:42;2.10;16.50
19000;DHT22;9633;50.980;13.850;2023-04-03T02:02:16;2.20;19.00
19000;DHT22;9633;50.980;13.850;2023-04-03T02:03:50;2.30;12.60
19000;DHT22;9633;50.980;13.850;2023-04-03T02:05:23;2.30;22.20
19000;DHT22;9633;50.980;13.850;2023-04-03T02:06:55;2.30;17.40
19000;DHT22;9633;50.980;13.850;2023-04-03T02:08:29;2.20;29.00
19000;DHT22;9633;50.980;13.850;2023-04-03T02:10:02;2.00;6.10
19000;DHT22;9633;50.980;13.850;2023-04-03T02:11:36;2.10;8.20
19000;DHT22;9633;50.980;13.850;2023-04-03T02:13:09;2.10;10.50
19000;DHT22;9633;50.980;13.850;2023-04-03T02:14:42;2.00;13.50
19000;DHT22;9633;50.980;13.850;2023-04-03T02:16:16;2.00;17.20
19000;DHT22;9633;50.980;13.850;2023-04-03T02:17:49;1.80;29.80
19000;DHT22;9633;50.980;13.850;2023-04-03T02:19:24;1.80;16.00
19000;DHT22;9633;50.980;13.850;2023-04-03T02:20:57;1.90;15.00
19000;DHT22;9633;50.980;13.850;2023-04-03T02:22:31;1.80;10.70
19000;DHT22;9633;50.980;13.850;2023-04-03T02:24:04;2.00;14.50
19000;DHT22;9633;50.980;13.850;2023-04-03T02:25:38;1.70;15.40
19000;DHT22;9633;50.980;13.850;2023-04-03T02:27:11;1.60;23.00
19000;DHT22;9633;50.980;13.850;2023-04-03T02:28:44;1.60;22.90
19000;DHT22;9633;50.980;13.850;2023-04-03T02:30:17;1.60;24.00
19000;DHT22;9633;50.980;13.850;2023-04-03T02:31:51;1.70;16.40
19000;DHT22;9633;50.980;13.850;2023-04-03T02:33:25;1.70;14.80
19000;DHT22;9633;50.980;13.850;2023-04-03T02:35:00;1.70;21.50
19000;DHT22;9633;50.980;13.850;2023-04-03T02:36:33;1.80;26.10
19000;DHT22;9633;50.980;13.850;2023-04-03T02:38:09;1.70;28.90
